createdAt,value
2018-08-28T00:00:23.541Z,3.15
2018-08-28T00:02:54.348Z,5.13
2018-08-28T00:05:24.413Z,2.87
2018-08-28T00:07:55.764Z,5.58
2018-08-28T00:10:26.366Z,3.62
2018-08-28T00:12:56.989Z,4.70
2018-08-28T00:15:28.248Z,3.12
2018-08-28T00:17:58.619Z,2.95
2018-08-28T00:20:30.355Z,3.05
2018-08-28T00:23:01.759Z,2.87
2018-08-28T00:25:32.483Z,3.25
2018-08-28T00:28:02.643Z,3.12
2018-08-28T00:30:32.765Z,3.85
2018-08-28T00:33:05.661Z,2.90
2018-08-28T00:35:37.030Z,2.98
2018-08-28T00:38:09.993Z,2.45
2018-08-28T00:40:40.417Z,2.37
2018-08-28T00:43:14.361Z,2.98
2018-08-28T00:45:44.789Z,3.15
2018-08-28T00:48:15.248Z,2.52
2018-08-28T00:50:45.568Z,2.80
2018-08-28T00:53:16.654Z,3.50
2018-08-28T00:55:46.901Z,2.37
2018-08-28T00:58:17.768Z,2.40
2018-08-28T01:00:48.023Z,3.50
2018-08-28T01:03:19.324Z,3.43
2018-08-28T01:05:50.632Z,2.10
2018-08-28T01:08:22.830Z,2.60
2018-08-28T01:10:53.376Z,2.65
2018-08-28T01:13:25.302Z,3.95
2018-08-28T01:15:55.646Z,3.02
2018-08-28T01:18:26.347Z,4.28
2018-08-28T01:20:57.812Z,2.90
2018-08-28T01:23:27.975Z,2.85
2018-08-28T01:25:58.124Z,4.07
2018-08-28T01:28:29.214Z,4.12
2018-08-28T01:30:59.606Z,3.50
2018-08-28T01:33:30.578Z,2.77
2018-08-28T01:36:00.722Z,4.08
2018-08-28T01:38:30.978Z,3.03
2018-08-28T01:41:01.094Z,2.92
2018-08-28T01:43:32.448Z,4.17
2018-08-28T01:46:03.242Z,3.17
2018-08-28T01:48:34.496Z,3.07
2018-08-28T01:51:05.850Z,3.70
2018-08-28T01:53:37.502Z,3.12
2018-08-28T01:56:09.176Z,2.80
2018-08-28T01:58:40.124Z,2.83
2018-08-28T02:01:11.194Z,3.00
2018-08-28T02:03:41.384Z,2.98
2018-08-28T02:06:11.528Z,3.20
2018-08-28T02:08:41.578Z,4.17
2018-08-28T02:11:13.620Z,4.65
2018-08-28T02:13:44.597Z,4.87
2018-08-28T02:16:15.685Z,4.33
2018-08-28T02:18:46.030Z,4.70
2018-08-28T02:21:17.526Z,5.37
2018-08-28T02:23:49.212Z,4.67
2018-08-28T02:26:20.574Z,3.52
2018-08-28T02:28:50.630Z,3.85
2018-08-28T02:31:21.326Z,4.28
2018-08-28T02:33:52.460Z,4.78
2018-08-28T02:36:25.760Z,4.00
2018-08-28T02:38:57.412Z,3.52
2018-08-28T02:41:27.612Z,4.42
2018-08-28T02:43:59.467Z,4.85
2018-08-28T02:46:30.232Z,4.45
2018-08-28T02:49:01.659Z,4.33
2018-08-28T02:51:32.023Z,4.33
2018-08-28T02:54:04.793Z,5.83
2018-08-28T02:56:36.058Z,4.65
2018-08-28T02:59:07.734Z,4.60
2018-08-28T03:01:38.704Z,4.75
2018-08-28T03:04:10.537Z,4.50
2018-08-28T03:06:41.901Z,6.30
2018-08-28T03:09:12.645Z,4.85
2018-08-28T03:11:42.897Z,5.22
2018-08-28T03:14:15.133Z,6.62
2018-08-28T03:16:45.553Z,4.58
2018-08-28T03:19:17.599Z,4.50
2018-08-28T03:21:47.865Z,4.75
2018-08-28T03:24:19.288Z,5.25
2018-08-28T03:26:49.573Z,5.20
2018-08-28T03:29:20.547Z,4.70
2018-08-28T03:31:50.987Z,5.28
2018-08-28T03:34:21.065Z,4.87
2018-08-28T03:36:52.529Z,4.97
2018-08-28T03:39:23.661Z,5.07
2018-08-28T03:41:54.587Z,4.92
2018-08-28T03:44:24.694Z,5.72
2018-08-28T03:46:55.752Z,4.60
2018-08-28T03:49:26.152Z,5.45
2018-08-28T03:51:57.058Z,5.47
2018-08-28T03:54:28.169Z,4.92
2018-08-28T03:56:59.971Z,5.90
2018-08-28T03:59:30.581Z,5.72
2018-08-28T04:02:01.321Z,6.97
2018-08-28T04:04:32.323Z,6.80
2018-08-28T04:07:02.931Z,7.03
2018-08-28T04:09:33.463Z,7.25
2018-08-28T04:12:04.446Z,7.58
2018-08-28T04:14:35.255Z,7.60
2018-08-28T04:17:05.480Z,7.28
2018-08-28T04:19:36.295Z,9.35
2018-08-28T04:22:07.647Z,7.75
2018-08-28T04:24:38.649Z,7.20
2018-08-28T04:27:08.780Z,7.12
2018-08-28T04:29:40.261Z,7.05
2018-08-28T04:32:11.211Z,8.35
2018-08-28T04:34:42.479Z,9.05
2018-08-28T04:37:12.694Z,7.53
2018-08-28T04:39:43.097Z,9.28
2018-08-28T04:42:14.139Z,7.87
2018-08-28T04:44:44.833Z,8.08
2018-08-28T04:47:16.831Z,8.45
2018-08-28T04:49:47.849Z,8.13
2018-08-28T04:52:22.013Z,9.05
2018-08-28T04:54:52.444Z,9.03
2018-08-28T04:57:23.777Z,8.63
2018-08-28T04:59:56.415Z,8.25
2018-08-28T05:02:30.946Z,8.38
2018-08-28T05:05:01.952Z,9.58
2018-08-28T05:07:33.703Z,8.13
2018-08-28T05:10:04.571Z,9.25
2018-08-28T05:12:35.045Z,9.28
2018-08-28T05:15:05.532Z,9.25
2018-08-28T05:17:36.305Z,8.25
2018-08-28T05:20:07.815Z,8.55
2018-08-28T05:22:39.281Z,8.58
2018-08-28T05:25:11.391Z,8.50
2018-08-28T05:27:42.688Z,8.93
2018-08-28T05:30:15.540Z,10.00
2018-08-28T05:32:47.858Z,9.63
2018-08-28T05:35:19.084Z,9.48
2018-08-28T05:37:50.243Z,10.32
2018-08-28T05:40:22.821Z,9.23
2018-08-28T05:42:53.090Z,9.63
2018-08-28T05:45:25.191Z,9.40
2018-08-28T05:47:58.611Z,10.23
2018-08-28T05:50:32.823Z,9.13
2018-08-28T05:53:08.445Z,9.95
2018-08-28T05:55:39.330Z,9.68
2018-08-28T05:58:11.272Z,9.65
2018-08-28T06:00:41.450Z,9.95
2018-08-28T06:03:13.449Z,8.68
2018-08-28T06:05:44.621Z,9.38
2018-08-28T06:08:15.981Z,9.55
2018-08-28T06:10:46.871Z,9.38
2018-08-28T06:13:19.275Z,9.28
2018-08-28T06:15:49.438Z,9.10
2018-08-28T06:18:19.790Z,9.15
2018-08-28T06:20:49.992Z,9.60
2018-08-28T06:23:21.373Z,9.63
2018-08-28T06:25:51.475Z,9.30
2018-08-28T06:28:21.641Z,9.05
2018-08-28T06:30:51.761Z,8.68
2018-08-28T06:33:22.173Z,9.48
2018-08-28T06:35:53.221Z,10.80
2018-08-28T06:38:24.380Z,8.50
2018-08-28T06:40:55.527Z,8.73
2018-08-28T06:43:27.759Z,9.93
2018-08-28T06:45:59.053Z,8.85
2018-08-28T06:48:29.376Z,10.57
2018-08-28T06:51:03.825Z,9.65
2018-08-28T06:53:34.373Z,9.68
2018-08-28T06:56:08.303Z,10.48
2018-08-28T06:58:39.337Z,8.78
2018-08-28T07:01:11.610Z,8.43
2018-08-28T07:03:42.035Z,8.63
2018-08-28T07:06:12.735Z,8.13
2018-08-28T07:08:43.840Z,7.35
2018-08-28T07:11:15.189Z,8.38
2018-08-28T07:13:45.892Z,8.18
2018-08-28T07:16:17.168Z,7.70
2018-08-28T07:18:47.606Z,7.83
2018-08-28T07:21:18.285Z,7.00
2018-08-28T07:23:49.690Z,7.72
2018-08-28T07:26:25.695Z,7.47
2018-08-28T07:28:57.122Z,7.10
2018-08-28T07:31:28.749Z,8.45
2018-08-28T07:33:59.650Z,6.53
2018-08-28T07:36:30.956Z,7.77
2018-08-28T07:39:01.811Z,7.15
2018-08-28T07:41:32.375Z,6.87
2018-08-28T07:44:02.959Z,8.20
2018-08-28T07:46:33.170Z,7.97
2018-08-28T07:49:05.500Z,6.90
2018-08-28T07:51:36.656Z,7.28
2018-08-28T07:54:07.536Z,8.65
2018-08-28T07:56:37.684Z,6.62
2018-08-28T07:59:11.548Z,7.30
2018-08-28T08:01:42.478Z,7.10
2018-08-28T08:04:14.719Z,7.08
2018-08-28T08:06:46.909Z,8.45
2018-08-28T08:09:20.669Z,7.42
2018-08-28T08:11:51.307Z,6.65
2018-08-28T08:14:22.625Z,11.45
2018-08-28T08:16:54.780Z,8.90
2018-08-28T08:19:26.336Z,7.73
2018-08-28T08:21:59.163Z,7.10
2018-08-28T08:24:30.745Z,8.60
2018-08-28T08:27:03.644Z,7.25
2018-08-28T08:29:35.618Z,9.20
2018-08-28T08:32:13.202Z,9.13
2018-08-28T08:34:46.506Z,5.60
2018-08-28T08:37:19.969Z,6.17
2018-08-28T08:39:54.197Z,7.62
2018-08-28T08:42:27.076Z,7.62
2018-08-28T08:44:58.374Z,7.90
2018-08-28T08:47:33.757Z,6.60
2018-08-28T08:50:05.032Z,7.53
2018-08-28T08:52:37.958Z,5.62
2018-08-28T08:55:09.576Z,8.20
2018-08-28T08:57:40.796Z,8.60
2018-08-28T09:00:12.225Z,7.40
2018-08-28T09:02:43.084Z,6.37
2018-08-28T09:05:13.986Z,8.90
2018-08-28T09:07:45.644Z,7.57
2018-08-28T09:10:16.361Z,8.23
2018-08-28T09:12:47.328Z,5.70
2018-08-28T09:15:19.883Z,6.47
2018-08-28T09:17:51.457Z,6.95
2018-08-28T09:20:22.779Z,5.87
2018-08-28T09:22:54.522Z,6.87
2018-08-28T09:25:28.142Z,7.00
2018-08-28T09:27:58.437Z,6.62
2018-08-28T09:30:29.971Z,7.23
2018-08-28T09:33:01.091Z,8.68
2018-08-28T09:35:32.337Z,6.92
2018-08-28T09:38:06.395Z,6.78
2018-08-28T09:40:36.573Z,6.87
2018-08-28T09:43:06.822Z,7.42
2018-08-28T09:45:37.386Z,6.42
2018-08-28T09:48:08.895Z,7.30
2018-08-28T09:50:39.879Z,7.15
2018-08-28T09:53:10.035Z,7.03
2018-08-28T09:55:40.532Z,7.12
2018-08-28T09:58:10.648Z,7.53
2018-08-28T10:00:46.493Z,6.33
2018-08-28T10:03:17.554Z,6.78
2018-08-28T10:05:48.622Z,6.42
2018-08-28T10:08:19.453Z,7.90
2018-08-28T10:10:49.606Z,6.53
2018-08-28T10:13:20.972Z,6.00
2018-08-28T10:15:56.459Z,6.20
2018-08-28T10:18:27.148Z,5.55
2018-08-28T10:20:57.506Z,7.53
2018-08-28T10:23:30.292Z,5.62
2018-08-28T10:26:00.807Z,7.47
2018-08-28T10:28:32.937Z,5.90
2018-08-28T10:31:04.305Z,5.10
2018-08-28T10:33:34.547Z,7.00
2018-08-28T10:36:04.641Z,6.30
2018-08-28T10:38:35.235Z,7.08
2018-08-28T10:41:06.975Z,8.08
2018-08-28T10:43:37.382Z,6.23
2018-08-28T10:46:08.094Z,7.77
2018-08-28T10:48:38.419Z,10.15
2018-08-28T10:51:09.265Z,7.28
2018-08-28T10:53:40.107Z,5.42
2018-08-28T10:56:10.373Z,6.15
2018-08-28T10:58:41.156Z,6.10
2018-08-28T11:01:11.841Z,6.30
2018-08-28T11:03:42.917Z,5.50
2018-08-28T11:06:14.135Z,5.33
2018-08-28T11:08:44.292Z,6.10
2018-08-28T11:11:16.468Z,7.72
2018-08-28T11:13:46.679Z,5.67
2018-08-28T11:16:17.204Z,10.00
2018-08-28T11:18:47.124Z,7.90
2018-08-28T11:21:18.608Z,7.17
2018-08-28T11:23:49.674Z,9.00
2018-08-28T11:26:20.290Z,6.92
2018-08-28T11:28:52.009Z,7.37
2018-08-28T11:31:22.725Z,6.60
2018-08-28T11:33:53.666Z,6.75
2018-08-28T11:36:25.353Z,7.00
2018-08-28T11:38:56.670Z,8.63
2018-08-28T11:41:27.174Z,7.20
2018-08-28T11:43:57.405Z,5.90
2018-08-28T11:46:29.792Z,5.40
2018-08-28T11:49:00.107Z,17.45
2018-08-28T11:51:30.974Z,9.13
2018-08-28T11:54:02.260Z,5.87
2018-08-28T11:56:33.684Z,5.90
2018-08-28T11:59:04.888Z,5.45
2018-08-28T12:01:35.595Z,6.05
2018-08-28T12:04:05.794Z,5.08
2018-08-28T12:06:36.328Z,5.67
2018-08-28T12:09:09.203Z,5.97
2018-08-28T12:11:39.565Z,5.55
2018-08-28T12:14:11.078Z,4.87
2018-08-28T12:16:42.339Z,6.50
2018-08-28T12:19:12.545Z,9.95
2018-08-28T12:21:44.171Z,5.50
2018-08-28T12:24:14.464Z,6.97
2018-08-28T12:26:45.459Z,9.45
2018-08-28T12:29:16.818Z,4.80
2018-08-28T12:31:48.424Z,8.28
2018-08-28T12:34:20.163Z,5.58
2018-08-28T12:36:50.455Z,6.40
2018-08-28T12:39:21.828Z,6.62
2018-08-28T12:41:52.230Z,6.35
2018-08-28T12:44:24.321Z,5.40
2018-08-28T12:46:56.411Z,6.70
2018-08-28T12:49:28.289Z,10.13
2018-08-28T12:51:59.296Z,15.72
2018-08-28T12:54:29.750Z,465.08
2018-08-28T12:57:00.049Z,9.85
2018-08-28T12:59:30.488Z,322.17
2018-08-28T13:02:02.952Z,1255.63
2018-08-28T13:04:34.536Z,1105.60
2018-08-28T13:07:06.553Z,1041.88
2018-08-28T13:09:38.863Z,6.40
2018-08-28T13:12:08.982Z,5.90
2018-08-28T13:14:41.066Z,5.97
2018-08-28T13:17:11.313Z,7.17
2018-08-28T13:19:43.435Z,5.58
2018-08-28T13:22:15.204Z,6.33
2018-08-28T13:24:45.290Z,8.73
2018-08-28T13:27:16.608Z,7.00
2018-08-28T13:29:46.694Z,5.53
2018-08-28T13:32:17.234Z,5.90
2018-08-28T13:34:47.372Z,5.05
2018-08-28T13:37:19.593Z,7.43
2018-08-28T13:39:51.112Z,5.95
2018-08-28T13:42:21.186Z,7.75
2018-08-28T13:44:51.249Z,6.87
2018-08-28T13:47:21.816Z,6.33
2018-08-28T13:49:52.519Z,6.25
2018-08-28T13:52:22.538Z,4.97
2018-08-28T13:54:52.635Z,6.83
2018-08-28T13:57:24.513Z,6.17
2018-08-28T13:59:55.538Z,7.08
2018-08-28T14:02:25.762Z,6.12
2018-08-28T14:04:57.374Z,7.42
2018-08-28T14:07:27.478Z,6.00
2018-08-28T14:09:58.498Z,67.22
2018-08-28T14:12:28.773Z,446.93
2018-08-28T14:14:59.606Z,56.70
2018-08-28T14:17:31.306Z,223.38
2018-08-28T14:20:03.079Z,16.87
2018-08-28T14:22:34.444Z,6.17
2018-08-28T14:25:05.308Z,5.92
2018-08-28T14:27:35.637Z,6.85
2018-08-28T14:30:07.777Z,4.75
2018-08-28T14:32:40.892Z,8.63
2018-08-28T14:35:11.924Z,6.92
2018-08-28T14:37:43.541Z,6.28
2018-08-28T14:40:14.113Z,8.08
2018-08-28T14:42:44.975Z,6.78
2018-08-28T14:45:15.171Z,6.35
2018-08-28T14:47:46.377Z,5.70
2018-08-28T14:50:16.747Z,6.92
2018-08-28T14:52:46.879Z,5.42
2018-08-28T14:55:17.822Z,6.30
2018-08-28T14:57:48.602Z,6.40
2018-08-28T15:00:18.823Z,6.13
2018-08-28T15:02:49.765Z,6.60
2018-08-28T15:05:21.318Z,6.15
2018-08-28T15:07:53.276Z,8.45
2018-08-28T15:10:25.928Z,6.37
2018-08-28T15:12:57.324Z,7.70
2018-08-28T15:15:29.298Z,7.47
2018-08-28T15:18:00.381Z,7.80
2018-08-28T15:20:31.942Z,6.92
2018-08-28T15:23:02.070Z,8.05
2018-08-28T15:25:33.790Z,6.23
2018-08-28T15:28:04.826Z,5.80
2018-08-28T15:30:36.292Z,7.63
2018-08-28T15:33:07.265Z,5.97
2018-08-28T15:35:44.118Z,5.92
2018-08-28T15:38:14.894Z,6.77
2018-08-28T15:40:45.257Z,7.37
2018-08-28T15:43:16.204Z,8.13
2018-08-28T15:45:47.935Z,7.73
2018-08-28T15:48:19.559Z,6.78
2018-08-28T15:50:50.832Z,6.05
2018-08-28T15:53:22.150Z,7.55
2018-08-28T15:55:52.626Z,8.58
2018-08-28T15:58:23.339Z,6.40
2018-08-28T16:00:53.640Z,5.78
2018-08-28T16:03:24.193Z,6.50
2018-08-28T16:05:55.164Z,7.73
2018-08-28T16:08:25.648Z,7.30
2018-08-28T16:10:56.866Z,7.87
2018-08-28T16:13:27.416Z,6.12
2018-08-28T16:15:58.322Z,7.28
2018-08-28T16:18:29.200Z,8.45
2018-08-28T16:21:01.601Z,5.87
2018-08-28T16:23:34.950Z,6.57
2018-08-28T16:26:06.587Z,6.90
2018-08-28T16:28:38.316Z,6.85
2018-08-28T16:31:09.119Z,7.90
2018-08-28T16:33:40.361Z,7.80
2018-08-28T16:36:11.755Z,6.78
2018-08-28T16:38:42.014Z,8.25
2018-08-28T16:41:14.781Z,10.30
2018-08-28T16:43:45.491Z,7.62
2018-08-28T16:46:35.106Z,7.50
2018-08-28T16:49:05.720Z,6.10
2018-08-28T16:51:35.872Z,7.80
2018-08-28T16:54:06.722Z,7.10
2018-08-28T16:56:37.478Z,6.55
2018-08-28T16:59:09.368Z,9.63
2018-08-28T17:01:39.693Z,6.45
2018-08-28T17:04:10.173Z,10.48
2018-08-28T17:06:40.354Z,8.68
2018-08-28T17:09:12.220Z,9.73
2018-08-28T17:11:43.062Z,9.80
2018-08-28T17:14:14.670Z,8.13
2018-08-28T17:16:44.979Z,11.22
2018-08-28T17:19:15.860Z,9.50
2018-08-28T17:21:46.330Z,9.30
2018-08-28T17:24:16.501Z,6.70
2018-08-28T17:26:46.643Z,12.53
2018-08-28T17:29:18.160Z,6.35
2018-08-28T17:31:48.333Z,6.30
2018-08-28T17:34:19.953Z,7.45
2018-08-28T17:36:50.296Z,8.25
2018-08-28T17:39:21.403Z,8.88
2018-08-28T17:41:51.572Z,13.68
2018-08-28T17:44:22.901Z,13.58
2018-08-28T17:46:53.046Z,10.58
2018-08-28T17:49:24.283Z,11.63
2018-08-28T17:51:54.450Z,8.80
2018-08-28T17:54:24.699Z,8.38
2018-08-28T17:56:55.651Z,8.53
2018-08-28T17:59:25.973Z,11.43
2018-08-28T18:01:59.693Z,8.85
2018-08-28T18:04:31.447Z,7.22
2018-08-28T18:07:02.710Z,14.13
2018-08-28T18:09:33.129Z,11.05
2018-08-28T18:12:03.775Z,10.03
2018-08-28T18:14:34.910Z,11.10
2018-08-28T18:17:05.564Z,8.55
2018-08-28T18:19:35.742Z,7.60
2018-08-28T18:22:07.872Z,7.30
2018-08-28T18:24:38.169Z,8.43
2018-08-28T18:27:09.171Z,9.18
2018-08-28T18:29:40.228Z,8.58
2018-08-28T18:32:12.335Z,7.92
2018-08-28T18:34:43.314Z,7.03
2018-08-28T18:37:14.670Z,7.95
2018-08-28T18:39:47.469Z,6.95
2018-08-28T18:42:18.703Z,7.30
2018-08-28T18:44:50.512Z,7.10
2018-08-28T18:47:23.406Z,7.25
2018-08-28T18:49:54.318Z,9.38
2018-08-28T18:52:26.293Z,8.63
2018-08-28T18:54:57.027Z,9.00
2018-08-28T18:57:27.862Z,10.32
2018-08-28T18:59:58.509Z,7.85
2018-08-28T19:02:30.092Z,7.92
2018-08-28T19:05:00.722Z,9.78
2018-08-28T19:07:31.174Z,8.50
2018-08-28T19:10:02.210Z,10.95
2018-08-28T19:12:33.755Z,11.18
2018-08-28T19:15:04.149Z,9.75
2018-08-28T19:17:35.213Z,12.45
2018-08-28T19:20:05.370Z,9.60
2018-08-28T19:22:37.316Z,9.10
2018-08-28T19:25:07.463Z,9.83
2018-08-28T19:27:38.815Z,12.58
2018-08-28T19:30:09.088Z,11.65
2018-08-28T19:32:43.046Z,11.70
2018-08-28T19:35:14.289Z,10.72
2018-08-28T19:37:44.488Z,12.18
2018-08-28T19:40:15.314Z,13.70
2018-08-28T19:42:48.920Z,15.00
2018-08-28T19:45:19.097Z,10.82
2018-08-28T19:47:50.016Z,12.58
2018-08-28T19:50:20.958Z,12.13
2018-08-28T19:52:51.135Z,10.10
2018-08-28T19:55:21.719Z,11.75
2018-08-28T19:57:52.158Z,8.85
2018-08-28T20:00:24.065Z,10.55
2018-08-28T20:02:55.409Z,9.53
2018-08-28T20:05:25.937Z,12.10
2018-08-28T20:07:57.313Z,8.80
2018-08-28T20:10:28.962Z,10.88
2018-08-28T20:13:00.884Z,9.35
2018-08-28T20:15:31.169Z,11.03
2018-08-28T20:18:02.009Z,9.00
2018-08-28T20:20:33.186Z,10.10
2018-08-28T20:23:04.659Z,9.95
2018-08-28T20:25:34.835Z,10.43
2018-08-28T20:28:05.352Z,13.68
2018-08-28T20:30:36.631Z,12.75
2018-08-28T20:33:08.082Z,10.10
2018-08-28T20:35:38.287Z,10.48
2018-08-28T20:38:09.765Z,16.90
2018-08-28T20:40:39.907Z,18.23
2018-08-28T20:43:10.808Z,12.37
2018-08-28T20:45:40.955Z,10.35
2018-08-28T20:48:11.513Z,7.78
2018-08-28T20:50:43.497Z,10.72
2018-08-28T20:53:13.719Z,11.22
2018-08-28T20:55:44.817Z,12.65
2018-08-28T20:58:15.857Z,10.03
2018-08-28T21:00:48.358Z,9.03
2018-08-28T21:03:19.560Z,11.28
2018-08-28T21:05:49.734Z,10.90
2018-08-28T21:08:20.250Z,11.70
2018-08-28T21:10:51.927Z,14.85
2018-08-28T21:13:22.326Z,12.58
2018-08-28T21:15:52.788Z,11.93
2018-08-28T21:18:23.710Z,12.80
2018-08-28T21:20:54.894Z,10.32
2018-08-28T21:23:26.582Z,8.93
2018-08-28T21:25:57.661Z,10.60
2018-08-28T21:28:29.500Z,12.95
2018-08-28T21:30:59.723Z,11.03
2018-08-28T21:33:30.387Z,11.80
2018-08-28T21:36:00.514Z,12.30
2018-08-28T21:38:31.906Z,9.90
2018-08-28T21:41:02.898Z,11.53
2018-08-28T21:43:35.229Z,12.35
2018-08-28T21:46:07.048Z,9.20
2018-08-28T21:48:37.218Z,9.00
2018-08-28T21:51:08.393Z,9.70
2018-08-28T21:53:39.823Z,12.25
2018-08-28T21:56:10.675Z,10.43
2018-08-28T21:58:41.079Z,10.82
2018-08-28T22:01:13.953Z,9.83
2018-08-28T22:03:44.819Z,10.35
2018-08-28T22:06:20.417Z,9.05
2018-08-28T22:08:50.635Z,9.98
2018-08-28T22:11:21.983Z,12.18
2018-08-28T22:13:53.149Z,10.23
2018-08-28T22:16:23.276Z,10.68
2018-08-28T22:18:54.895Z,11.45
2018-08-28T22:21:26.397Z,11.00
2018-08-28T22:23:56.519Z,12.03
2018-08-28T22:26:26.958Z,12.20
2018-08-28T22:28:57.793Z,11.97
2018-08-28T22:31:28.691Z,11.53
2018-08-28T22:33:59.902Z,12.15
2018-08-28T22:36:31.144Z,12.60
2018-08-28T22:39:02.597Z,12.40
2018-08-28T22:41:33.089Z,12.63
2018-08-28T22:44:03.217Z,11.03
2018-08-28T22:46:34.198Z,11.20
2018-08-28T22:49:04.375Z,13.45
2018-08-28T22:51:34.567Z,13.18
2018-08-28T22:54:05.220Z,12.35
2018-08-28T22:56:39.541Z,11.50
2018-08-28T22:59:12.447Z,13.60
2018-08-28T23:01:43.067Z,12.73
2018-08-28T23:04:13.987Z,13.45
2018-08-28T23:06:45.110Z,13.83
2018-08-28T23:09:16.906Z,14.85
2018-08-28T23:11:47.052Z,13.28
2018-08-28T23:14:17.838Z,11.40
2018-08-28T23:16:49.190Z,13.33
2018-08-28T23:19:20.250Z,9.83
2018-08-28T23:21:50.355Z,11.75
2018-08-28T23:24:20.778Z,12.30
2018-08-28T23:26:51.666Z,10.32
2018-08-28T23:29:22.454Z,10.20
2018-08-28T23:31:53.202Z,11.25
2018-08-28T23:34:23.734Z,12.75
2018-08-28T23:36:53.889Z,9.78
2018-08-28T23:39:25.502Z,10.45
2018-08-28T23:41:57.326Z,12.28
2018-08-28T23:44:27.826Z,10.25
2018-08-28T23:46:58.544Z,11.27
2018-08-28T23:49:28.936Z,11.17
2018-08-28T23:51:59.068Z,15.23
2018-08-28T23:54:30.144Z,12.37
2018-08-28T23:57:00.407Z,10.82
2018-08-28T23:59:30.858Z,12.70
